createdAt,value
2018-04-17T00:00:07.498Z,21.08
2018-04-17T00:01:14.308Z,21.05
2018-04-17T00:02:21.151Z,22.35
2018-04-17T00:03:27.482Z,21.48
2018-04-17T00:04:38.468Z,21.60
2018-04-17T00:05:49.471Z,23.92
2018-04-17T00:06:56.523Z,23.00
2018-04-17T00:08:05.652Z,23.12
2018-04-17T00:09:17.530Z,22.92
2018-04-17T00:10:23.847Z,24.37
2018-04-17T00:11:30.055Z,22.50
2018-04-17T00:12:36.499Z,23.12
2018-04-17T00:13:42.881Z,22.13
2018-04-17T00:14:49.197Z,21.95
2018-04-17T00:15:55.605Z,21.85
2018-04-17T00:17:02.031Z,22.48
2018-04-17T00:18:08.435Z,21.55
2018-04-17T00:19:14.956Z,20.30
2018-04-17T00:20:21.898Z,21.48
2018-04-17T00:21:28.702Z,21.55
2018-04-17T00:22:36.482Z,21.45
2018-04-17T00:23:42.961Z,22.80
2018-04-17T00:24:49.592Z,21.80
2018-04-17T00:25:56.491Z,18.73
2018-04-17T00:27:03.019Z,21.30
2018-04-17T00:28:09.321Z,18.90
2018-04-17T00:29:17.707Z,21.52
2018-04-17T00:30:24.414Z,18.83
2018-04-17T00:31:30.532Z,20.88
2018-04-17T00:32:37.142Z,20.02
2018-04-17T00:33:43.557Z,19.85
2018-04-17T00:34:49.971Z,20.70
2018-04-17T00:35:56.383Z,19.67
2018-04-17T00:37:03.205Z,21.75
2018-04-17T00:38:10.566Z,20.83
2018-04-17T00:39:17.595Z,21.75
2018-04-17T00:40:24.197Z,22.08
2018-04-17T00:41:30.809Z,21.05
2018-04-17T00:42:37.327Z,21.58
2018-04-17T00:43:43.739Z,21.35
2018-04-17T00:44:50.256Z,20.42
2018-04-17T00:45:56.799Z,21.12
2018-04-17T00:47:03.389Z,21.00
2018-04-17T00:48:10.427Z,21.30
2018-04-17T00:49:16.945Z,21.20
2018-04-17T00:50:23.759Z,21.48
2018-04-17T00:51:30.178Z,20.45
2018-04-17T00:52:36.586Z,20.70
2018-04-17T00:54:09.160Z,21.23
2018-04-17T00:55:15.614Z,20.23
2018-04-17T00:56:22.130Z,20.27
2018-04-17T00:57:28.646Z,20.92
2018-04-17T00:58:35.654Z,21.48
2018-04-17T00:59:42.190Z,21.37
2018-04-17T01:00:48.910Z,21.20
2018-04-17T01:01:55.223Z,20.27
2018-04-17T01:03:02.362Z,20.37
2018-04-17T01:04:10.407Z,20.12
2018-04-17T01:05:16.928Z,21.50
2018-04-17T01:06:23.541Z,20.83
2018-04-17T01:07:29.813Z,21.92
2018-04-17T01:08:36.270Z,21.80
2018-04-17T01:09:42.477Z,18.40
2018-04-17T01:10:49.570Z,20.58
2018-04-17T01:11:56.978Z,20.92
2018-04-17T01:13:03.862Z,22.17
2018-04-17T01:14:10.394Z,22.02
2018-04-17T01:15:16.805Z,21.40
2018-04-17T01:16:23.317Z,21.60
2018-04-17T01:17:29.534Z,20.52
2018-04-17T01:18:35.921Z,21.40
2018-04-17T01:19:42.826Z,20.70
2018-04-17T01:20:49.178Z,22.25
2018-04-17T01:21:55.586Z,22.08
2018-04-17T01:23:02.217Z,21.48
2018-04-17T01:24:08.729Z,20.83
2018-04-17T01:25:14.937Z,21.48
2018-04-17T01:26:21.961Z,22.87
2018-04-17T01:27:28.474Z,21.42
2018-04-17T01:28:35.506Z,22.60
2018-04-17T01:29:42.596Z,23.05
2018-04-17T01:30:48.958Z,22.50
2018-04-17T01:31:55.572Z,21.58
2018-04-17T01:33:01.911Z,23.60
2018-04-17T01:34:08.183Z,21.60
2018-04-17T01:35:14.490Z,22.10
2018-04-17T01:36:21.022Z,21.67
2018-04-17T01:37:27.352Z,21.30
2018-04-17T01:38:34.569Z,22.73
2018-04-17T01:39:40.983Z,21.30
2018-04-17T01:40:47.395Z,22.98
2018-04-17T01:41:54.682Z,22.30
2018-04-17T01:43:01.402Z,24.08
2018-04-17T01:44:07.866Z,23.87
2018-04-17T01:45:14.878Z,21.85
2018-04-17T01:46:21.905Z,21.55
2018-04-17T01:47:28.444Z,23.40
2018-04-17T01:48:35.156Z,22.95
2018-04-17T01:49:41.575Z,22.35
2018-04-17T01:50:48.106Z,22.83
2018-04-17T01:51:55.120Z,22.15
2018-04-17T01:53:01.330Z,24.52
2018-04-17T01:54:08.406Z,24.33
2018-04-17T01:55:14.876Z,21.98
2018-04-17T01:56:21.853Z,21.65
2018-04-17T01:57:28.516Z,22.60
2018-04-17T01:58:34.631Z,24.70
2018-04-17T01:59:41.048Z,22.70
2018-04-17T02:00:47.452Z,22.98
2018-04-17T02:01:54.179Z,23.45
2018-04-17T02:03:00.394Z,24.75
2018-04-17T02:04:06.506Z,24.83
2018-04-17T02:05:13.554Z,23.17
2018-04-17T02:06:19.886Z,23.23
2018-04-17T02:07:26.353Z,24.55
2018-04-17T02:08:37.779Z,23.52
2018-04-17T02:09:44.743Z,24.73
2018-04-17T02:10:52.274Z,25.17
2018-04-17T02:11:59.680Z,23.38
2018-04-17T02:13:06.303Z,24.95
2018-04-17T02:14:15.997Z,24.35
2018-04-17T02:15:22.098Z,22.75
2018-04-17T02:16:28.516Z,23.38
2018-04-17T02:17:35.131Z,24.00
2018-04-17T02:18:41.654Z,22.42
2018-04-17T02:19:48.297Z,22.90
2018-04-17T02:20:54.580Z,24.52
2018-04-17T02:22:01.211Z,24.70
2018-04-17T02:23:07.496Z,24.20
2018-04-17T02:24:17.915Z,23.83
2018-04-17T02:25:24.811Z,24.10
2018-04-17T02:26:31.870Z,24.63
2018-04-17T02:27:38.386Z,23.17
2018-04-17T02:28:45.563Z,23.70
2018-04-17T02:29:52.856Z,23.60
2018-04-17T02:30:59.977Z,25.55
2018-04-17T02:32:05.488Z,25.58
2018-04-17T02:33:12.002Z,26.10
2018-04-17T02:34:18.207Z,24.75
2018-04-17T02:35:24.718Z,26.00
2018-04-17T02:36:31.138Z,27.23
2018-04-17T02:37:37.652Z,25.95
2018-04-17T02:38:43.963Z,25.20
2018-04-17T02:39:50.166Z,26.85
2018-04-17T02:40:56.589Z,25.05
2018-04-17T02:42:03.463Z,27.25
2018-04-17T02:43:10.551Z,25.62
2018-04-17T02:44:17.031Z,26.05
2018-04-17T02:45:23.681Z,24.83
2018-04-17T02:46:29.987Z,25.45
2018-04-17T02:47:36.513Z,26.35
2018-04-17T02:48:43.115Z,22.30
2018-04-17T02:49:49.925Z,27.10
2018-04-17T02:50:56.462Z,25.88
2018-04-17T02:52:02.870Z,26.12
2018-04-17T02:53:08.989Z,27.45
2018-04-17T02:54:15.468Z,27.48
2018-04-17T02:55:27.090Z,26.15
2018-04-17T02:56:36.413Z,24.00
2018-04-17T02:57:42.817Z,25.20
2018-04-17T02:58:49.446Z,25.27
2018-04-17T02:59:56.098Z,27.62
2018-04-17T03:01:02.696Z,27.70
2018-04-17T03:02:08.676Z,26.40
2018-04-17T03:03:15.918Z,25.10
2018-04-17T03:04:22.322Z,24.40
2018-04-17T03:05:28.646Z,25.33
2018-04-17T03:06:35.428Z,24.90
2018-04-17T03:07:42.584Z,27.02
2018-04-17T03:08:51.162Z,25.10
2018-04-17T03:09:58.292Z,25.40
2018-04-17T03:11:04.918Z,25.33
2018-04-17T03:12:12.242Z,25.15
2018-04-17T03:13:18.762Z,25.35
2018-04-17T03:14:25.198Z,25.50
2018-04-17T03:15:31.624Z,26.75
2018-04-17T03:16:43.547Z,25.60
2018-04-17T03:17:52.819Z,25.23
2018-04-17T03:18:59.978Z,26.60
2018-04-17T03:20:06.314Z,25.05
2018-04-17T03:21:12.767Z,25.75
2018-04-17T03:22:19.554Z,25.40
2018-04-17T03:23:28.453Z,25.48
2018-04-17T03:24:36.132Z,25.30
2018-04-17T03:25:43.024Z,23.90
2018-04-17T03:26:50.069Z,24.58
2018-04-17T03:27:56.482Z,25.77
2018-04-17T03:29:03.214Z,23.85
2018-04-17T03:30:09.807Z,25.05
2018-04-17T03:31:16.503Z,25.05
2018-04-17T03:32:23.054Z,25.45
2018-04-17T03:33:31.717Z,23.27
2018-04-17T03:34:37.927Z,24.45
2018-04-17T03:35:44.922Z,22.55
2018-04-17T03:36:51.475Z,23.50
2018-04-17T03:37:59.136Z,25.25
2018-04-17T03:39:06.267Z,24.77
2018-04-17T03:40:12.758Z,25.12
2018-04-17T03:41:19.498Z,25.40
2018-04-17T03:42:26.098Z,23.00
2018-04-17T03:43:32.620Z,23.98
2018-04-17T03:44:39.496Z,25.95
2018-04-17T03:45:45.539Z,24.65
2018-04-17T03:46:52.624Z,23.42
2018-04-17T03:47:58.683Z,21.73
2018-04-17T03:49:05.742Z,23.12
2018-04-17T03:50:13.057Z,24.58
2018-04-17T03:51:20.518Z,23.55
2018-04-17T03:52:26.922Z,22.85
2018-04-17T03:53:34.129Z,21.92
2018-04-17T03:54:42.855Z,23.98
2018-04-17T03:55:49.726Z,22.08
2018-04-17T03:56:56.443Z,23.17
2018-04-17T03:58:03.328Z,22.87
2018-04-17T03:59:09.784Z,21.12
2018-04-17T04:00:16.790Z,22.45
2018-04-17T04:01:24.150Z,22.33
2018-04-17T04:02:30.661Z,24.08
2018-04-17T04:03:37.414Z,19.75
2018-04-17T04:04:43.796Z,21.30
2018-04-17T04:05:50.218Z,18.77
2018-04-17T04:06:57.355Z,21.73
2018-04-17T04:08:04.364Z,19.52
2018-04-17T04:09:11.244Z,22.10
2018-04-17T04:10:19.043Z,18.37
2018-04-17T04:11:25.350Z,18.40
2018-04-17T04:12:31.774Z,20.12
2018-04-17T04:13:39.688Z,22.30
2018-04-17T04:14:46.753Z,20.83
2018-04-17T04:15:53.295Z,22.35
2018-04-17T04:17:10.530Z,20.60
2018-04-17T04:18:27.932Z,20.67
2018-04-17T04:19:45.971Z,22.75
2018-04-17T04:21:03.562Z,21.45
2018-04-17T04:22:20.929Z,21.62
2018-04-17T04:25:48.759Z,21.85
2018-04-17T04:27:08.131Z,21.98
2018-04-17T04:28:15.175Z,24.73
2018-04-17T04:29:21.696Z,23.27
2018-04-17T04:30:28.105Z,23.80
2018-04-17T04:31:35.042Z,28.08
2018-04-17T04:32:41.446Z,22.70
2018-04-17T04:33:47.861Z,24.65
2018-04-17T04:34:54.480Z,24.90
2018-04-17T04:36:00.792Z,22.62
2018-04-17T04:37:07.003Z,20.62
2018-04-17T04:38:13.122Z,20.02
2018-04-17T04:39:19.434Z,21.87
2018-04-17T04:40:25.791Z,22.92
2018-04-17T04:41:31.866Z,23.00
2018-04-17T04:42:38.257Z,22.62
2018-04-17T04:43:44.776Z,24.15
2018-04-17T04:44:51.286Z,22.13
2018-04-17T04:45:58.402Z,23.05
2018-04-17T04:47:04.832Z,20.62
2018-04-17T04:48:11.145Z,21.08
2018-04-17T04:49:17.713Z,22.52
2018-04-17T04:50:24.111Z,21.92
2018-04-17T04:51:30.557Z,24.45
2018-04-17T04:52:37.298Z,23.23
2018-04-17T04:53:44.309Z,23.25
2018-04-17T04:54:50.859Z,23.05
2018-04-17T04:55:57.388Z,24.52
2018-04-17T04:57:03.900Z,22.30
2018-04-17T04:58:10.400Z,23.50
2018-04-17T04:59:16.822Z,22.85
2018-04-17T05:00:23.339Z,21.95
2018-04-17T05:01:32.556Z,22.98
2018-04-17T05:02:40.627Z,23.17
2018-04-17T05:03:47.291Z,20.60
2018-04-17T05:04:53.938Z,21.62
2018-04-17T05:06:00.432Z,22.83
2018-04-17T05:07:06.941Z,20.62
2018-04-17T05:08:13.354Z,21.58
2018-04-17T05:09:19.866Z,20.88
2018-04-17T05:10:26.385Z,21.30
2018-04-17T05:11:33.530Z,19.08
2018-04-17T05:12:40.239Z,20.75
2018-04-17T05:13:46.345Z,20.37
2018-04-17T05:14:52.954Z,21.17
2018-04-17T05:15:59.584Z,20.05
2018-04-17T05:17:05.898Z,18.25
2018-04-17T05:18:12.308Z,20.73
2018-04-17T05:19:19.023Z,21.30
2018-04-17T05:20:25.956Z,20.98
2018-04-17T05:21:31.958Z,19.87
2018-04-17T05:22:42.205Z,18.50
2018-04-17T05:23:48.954Z,20.75
2018-04-17T05:24:55.709Z,19.75
2018-04-17T05:26:02.028Z,21.92
2018-04-17T05:27:08.529Z,21.02
2018-04-17T05:28:14.944Z,20.90
2018-04-17T05:29:21.876Z,22.33
2018-04-17T05:30:28.311Z,21.33
2018-04-17T05:31:34.810Z,21.85
2018-04-17T05:32:41.339Z,22.62
2018-04-17T05:33:47.941Z,23.58
2018-04-17T05:34:55.075Z,23.23
2018-04-17T05:36:01.494Z,24.45
2018-04-17T05:37:08.589Z,23.52
2018-04-17T05:38:15.128Z,23.30
2018-04-17T05:39:22.166Z,23.83
2018-04-17T05:40:29.394Z,20.30
2018-04-17T05:41:35.904Z,21.62
2018-04-17T05:42:42.477Z,22.67
2018-04-17T05:43:49.414Z,19.90
2018-04-17T05:44:55.976Z,22.25
2018-04-17T05:46:02.452Z,22.75
2018-04-17T05:47:09.099Z,22.73
2018-04-17T05:48:15.364Z,22.05
2018-04-17T05:49:21.965Z,23.60
2018-04-17T05:50:28.320Z,22.23
2018-04-17T05:51:34.968Z,22.20
2018-04-17T05:52:41.371Z,23.17
2018-04-17T05:53:47.656Z,23.92
2018-04-17T05:54:53.958Z,22.98
2018-04-17T05:56:00.306Z,22.08
2018-04-17T05:57:06.997Z,24.23
2018-04-17T05:58:13.351Z,23.40
2018-04-17T05:59:21.613Z,21.33
2018-04-17T06:00:29.214Z,21.95
2018-04-17T06:01:35.508Z,22.42
2018-04-17T06:02:41.855Z,21.00
2018-04-17T06:03:48.740Z,22.87
2018-04-17T06:04:55.045Z,22.75
2018-04-17T06:06:02.056Z,20.83
2018-04-17T06:07:08.942Z,21.62
2018-04-17T06:08:15.240Z,20.88
2018-04-17T06:09:22.116Z,22.90
2018-04-17T06:10:28.469Z,17.58
2018-04-17T06:11:34.765Z,21.23
2018-04-17T06:12:41.102Z,20.27
2018-04-17T06:13:47.405Z,18.45
2018-04-17T06:14:56.286Z,18.73
2018-04-17T06:16:03.725Z,17.23
2018-04-17T06:17:10.370Z,20.05
2018-04-17T06:18:16.648Z,17.77
2018-04-17T06:19:22.942Z,17.85
2018-04-17T06:20:28.819Z,15.95
2018-04-17T06:21:35.785Z,17.05
2018-04-17T06:22:42.143Z,17.20
2018-04-17T06:23:48.371Z,17.00
2018-04-17T06:24:54.608Z,18.48
2018-04-17T06:26:01.147Z,17.30
2018-04-17T06:27:08.391Z,17.75
2018-04-17T06:28:14.679Z,17.77
2018-04-17T06:29:21.005Z,18.42
2018-04-17T06:30:29.413Z,18.30
2018-04-17T06:31:36.752Z,17.35
2018-04-17T06:32:42.971Z,17.58
2018-04-17T06:33:49.327Z,18.10
2018-04-17T06:34:55.521Z,16.40
2018-04-17T06:36:01.788Z,16.48
2018-04-17T06:37:07.999Z,16.37
2018-04-17T06:38:14.240Z,15.88
2018-04-17T06:39:20.535Z,16.80
2018-04-17T06:40:26.789Z,16.35
2018-04-17T06:41:33.647Z,16.10
2018-04-17T06:42:39.903Z,15.20
2018-04-17T06:43:45.998Z,15.82
2018-04-17T06:44:52.313Z,16.48
2018-04-17T06:45:58.623Z,14.75
2018-04-17T06:47:06.338Z,14.63
2018-04-17T06:48:12.758Z,15.30
2018-04-17T06:49:19.003Z,16.17
2018-04-17T06:50:26.383Z,14.05
2018-04-17T06:51:32.639Z,13.77
2018-04-17T06:52:38.999Z,14.20
2018-04-17T06:53:45.492Z,14.60
2018-04-17T06:54:51.801Z,14.13
2018-04-17T06:55:58.578Z,13.32
2018-04-17T06:57:04.788Z,13.80
2018-04-17T06:58:10.767Z,13.93
2018-04-17T06:59:17.026Z,13.70
2018-04-17T07:00:23.326Z,14.13
2018-04-17T07:01:29.508Z,14.30
2018-04-17T07:02:35.778Z,12.95
2018-04-17T07:03:42.075Z,13.70
2018-04-17T07:04:48.383Z,13.43
2018-04-17T07:05:54.677Z,13.88
2018-04-17T07:07:00.899Z,10.90
2018-04-17T07:08:07.780Z,13.98
2018-04-17T07:09:14.052Z,11.25
2018-04-17T07:10:20.999Z,11.63
2018-04-17T07:11:27.309Z,12.20
2018-04-17T07:12:33.609Z,12.45
2018-04-17T07:13:39.920Z,12.32
2018-04-17T07:14:46.235Z,10.75
2018-04-17T07:15:52.509Z,13.15
2018-04-17T07:16:58.845Z,12.93
2018-04-17T07:18:04.940Z,12.57
2018-04-17T07:19:10.965Z,12.45
2018-04-17T07:20:17.299Z,12.88
2018-04-17T07:21:23.563Z,12.37
2018-04-17T07:22:32.371Z,13.27
2018-04-17T07:23:39.124Z,13.73
2018-04-17T07:24:46.197Z,13.82
2018-04-17T07:25:52.178Z,13.77
2018-04-17T07:26:58.406Z,14.02
2018-04-17T07:28:07.120Z,15.32
2018-04-17T07:29:15.047Z,14.52
2018-04-17T07:30:22.044Z,13.60
2018-04-17T07:31:28.331Z,14.00
2018-04-17T07:32:34.662Z,13.57
2018-04-17T07:33:41.007Z,13.93
2018-04-17T07:34:47.287Z,12.50
2018-04-17T07:35:53.605Z,13.13
2018-04-17T07:36:59.919Z,15.07
2018-04-17T07:38:08.919Z,14.50
2018-04-17T07:39:14.874Z,13.13
2018-04-17T07:40:21.200Z,12.70
2018-04-17T07:41:27.434Z,14.07
2018-04-17T07:42:34.367Z,13.13
2018-04-17T07:43:40.754Z,12.35
2018-04-17T07:44:47.079Z,13.25
2018-04-17T07:45:53.404Z,14.10
2018-04-17T07:47:10.879Z,15.23
2018-04-17T07:48:31.999Z,13.70
2018-04-17T07:49:37.718Z,13.85
2018-04-17T07:50:44.187Z,13.82
2018-04-17T07:51:50.516Z,13.70
2018-04-17T07:52:56.806Z,13.90
2018-04-17T07:54:03.078Z,15.32
2018-04-17T07:55:08.685Z,14.82
2018-04-17T07:56:15.465Z,13.77
2018-04-17T07:57:21.773Z,15.40
2018-04-17T07:58:27.963Z,15.00
2018-04-17T07:59:35.031Z,13.88
2018-04-17T08:00:41.334Z,13.62
2018-04-17T08:01:47.623Z,14.48
2018-04-17T08:02:54.639Z,13.50
2018-04-17T08:04:02.179Z,14.30
2018-04-17T08:05:10.186Z,13.77
2018-04-17T08:06:16.536Z,12.82
2018-04-17T08:07:22.939Z,13.32
2018-04-17T08:08:28.892Z,13.25
2018-04-17T08:09:35.246Z,14.15
2018-04-17T08:10:43.427Z,12.95
2018-04-17T08:11:51.850Z,13.80
2018-04-17T08:12:58.354Z,13.93
2018-04-17T08:14:05.246Z,14.05
2018-04-17T08:15:11.589Z,14.00
2018-04-17T08:16:18.353Z,14.30
2018-04-17T08:17:24.599Z,13.55
2018-04-17T08:18:30.910Z,14.50
2018-04-17T08:19:38.920Z,15.02
2018-04-17T08:20:46.146Z,14.18
2018-04-17T08:21:52.433Z,15.25
2018-04-17T08:22:58.732Z,14.30
2018-04-17T08:24:04.679Z,13.88
2018-04-17T08:25:11.171Z,14.23
2018-04-17T08:26:17.421Z,13.20
2018-04-17T08:27:23.647Z,14.45
2018-04-17T08:28:29.871Z,14.30
2018-04-17T08:29:36.206Z,13.30
2018-04-17T08:30:42.490Z,10.57
2018-04-17T08:31:48.811Z,12.63
2018-04-17T08:32:55.109Z,12.63
2018-04-17T08:34:01.420Z,12.75
2018-04-17T08:35:09.222Z,12.00
2018-04-17T08:36:16.439Z,12.27
2018-04-17T08:37:22.385Z,12.93
2018-04-17T08:38:28.599Z,9.80
2018-04-17T08:39:34.842Z,10.63
2018-04-17T08:40:41.795Z,9.75
2018-04-17T08:41:48.498Z,10.43
2018-04-17T08:42:54.814Z,10.95
2018-04-17T08:44:01.116Z,11.70
2018-04-17T08:45:07.418Z,11.80
2018-04-17T08:46:13.657Z,12.45
2018-04-17T08:47:19.926Z,12.85
2018-04-17T08:48:26.129Z,9.82
2018-04-17T08:49:32.347Z,10.02
2018-04-17T08:50:38.709Z,8.60
2018-04-17T08:51:44.989Z,9.35
2018-04-17T08:52:51.263Z,9.45
2018-04-17T08:53:57.488Z,9.55
2018-04-17T08:55:04.583Z,9.93
2018-04-17T08:56:11.354Z,9.15
2018-04-17T08:57:17.656Z,8.85
2018-04-17T08:58:23.838Z,8.18
2018-04-17T08:59:30.086Z,8.40
2018-04-17T09:00:36.414Z,9.05
2018-04-17T09:01:42.690Z,8.88
2018-04-17T09:02:49.732Z,9.60
2018-04-17T09:03:55.746Z,10.75
2018-04-17T09:05:02.048Z,9.23
2018-04-17T09:06:08.379Z,10.05
2018-04-17T09:07:14.956Z,10.60
2018-04-17T09:08:21.170Z,9.80
2018-04-17T09:09:27.495Z,10.38
2018-04-17T09:10:33.751Z,10.82
2018-04-17T09:11:41.257Z,9.18
2018-04-17T09:12:47.674Z,9.50
2018-04-17T09:13:54.109Z,9.95
2018-04-17T09:15:01.745Z,10.13
2018-04-17T09:16:08.073Z,9.82
2018-04-17T09:17:14.324Z,10.15
2018-04-17T09:18:20.529Z,9.55
2018-04-17T09:19:26.764Z,10.18
2018-04-17T09:20:33.411Z,9.88
2018-04-17T09:21:39.694Z,9.65
2018-04-17T09:22:45.888Z,8.95
2018-04-17T09:23:52.135Z,8.68
2018-04-17T09:24:58.615Z,7.50
2018-04-17T09:26:04.492Z,7.80
2018-04-17T09:27:15.240Z,8.18
2018-04-17T09:28:21.409Z,8.50
2018-04-17T09:29:27.635Z,8.20
2018-04-17T09:30:33.894Z,7.87
2018-04-17T09:31:40.179Z,8.30
2018-04-17T09:32:46.458Z,7.00
2018-04-17T09:33:52.703Z,7.40
2018-04-17T09:34:59.639Z,7.28
2018-04-17T09:36:05.778Z,6.70
2018-04-17T09:37:12.831Z,8.02
2018-04-17T09:38:19.158Z,7.30
2018-04-17T09:39:25.471Z,5.90
2018-04-17T09:40:31.690Z,7.80
2018-04-17T09:41:37.791Z,8.38
2018-04-17T09:42:45.035Z,6.80
2018-04-17T09:43:52.400Z,8.30
2018-04-17T09:44:58.680Z,5.95
2018-04-17T09:46:04.903Z,6.25
2018-04-17T09:47:11.195Z,5.72
2018-04-17T09:48:17.500Z,7.57
2018-04-17T09:49:23.730Z,8.43
2018-04-17T09:50:30.086Z,6.80
2018-04-17T09:51:36.546Z,6.05
2018-04-17T09:52:42.764Z,8.48
2018-04-17T09:53:49.058Z,7.68
2018-04-17T09:54:55.386Z,9.43
2018-04-17T09:56:02.173Z,9.38
2018-04-17T09:57:08.398Z,8.40
2018-04-17T09:58:14.620Z,8.40
2018-04-17T09:59:20.885Z,8.48
2018-04-17T10:00:26.894Z,7.97
2018-04-17T10:01:33.896Z,8.63
2018-04-17T10:02:40.186Z,9.75
2018-04-17T10:03:46.961Z,7.97
2018-04-17T10:04:53.914Z,8.23
2018-04-17T10:06:01.028Z,8.30
2018-04-17T10:07:08.531Z,8.18
2018-04-17T10:08:15.856Z,7.70
2018-04-17T10:09:23.101Z,8.02
2018-04-17T10:10:30.133Z,7.35
2018-04-17T10:11:37.394Z,6.35
2018-04-17T10:12:44.321Z,6.93
2018-04-17T10:13:51.797Z,5.95
2018-04-17T10:14:59.891Z,6.40
2018-04-17T10:16:07.555Z,7.55
2018-04-17T10:17:16.788Z,6.55
2018-04-17T10:18:28.465Z,6.80
2018-04-17T10:19:35.675Z,7.28
2018-04-17T10:20:42.440Z,7.00
2018-04-17T10:21:48.875Z,6.57
2018-04-17T10:22:56.828Z,6.90
2018-04-17T10:24:03.679Z,6.47
2018-04-17T10:25:10.810Z,5.60
2018-04-17T10:26:17.998Z,6.75
2018-04-17T10:27:24.904Z,6.18
2018-04-17T10:28:31.399Z,6.95
2018-04-17T10:29:41.896Z,7.28
2018-04-17T10:30:49.261Z,6.80
2018-04-17T10:31:56.189Z,7.53
2018-04-17T10:33:04.456Z,6.87
2018-04-17T10:34:11.837Z,6.35
2018-04-17T10:35:18.582Z,6.95
2018-04-17T10:36:25.375Z,8.52
2018-04-17T10:37:33.012Z,7.45
2018-04-17T10:38:43.848Z,7.03
2018-04-17T10:39:51.817Z,9.40
2018-04-17T10:41:00.320Z,9.23
2018-04-17T10:42:07.398Z,8.00
2018-04-17T10:43:14.547Z,8.30
2018-04-17T10:44:21.476Z,8.43
2018-04-17T10:45:28.516Z,8.20
2018-04-17T10:46:35.908Z,9.20
2018-04-17T10:47:42.877Z,8.70
2018-04-17T10:48:49.723Z,8.15
2018-04-17T10:49:56.623Z,8.85
2018-04-17T10:51:02.857Z,8.45
2018-04-17T10:52:09.113Z,8.70
2018-04-17T10:53:16.211Z,8.30
2018-04-17T10:54:24.436Z,8.82
2018-04-17T10:55:33.771Z,9.23
2018-04-17T10:56:39.991Z,9.32
2018-04-17T10:57:46.290Z,7.70
2018-04-17T10:58:53.226Z,8.68
2018-04-17T10:59:59.820Z,9.57
2018-04-17T11:01:05.639Z,9.25
2018-04-17T11:02:11.959Z,10.55
2018-04-17T11:03:18.628Z,9.25
2018-04-17T11:04:25.079Z,8.70
2018-04-17T11:05:31.435Z,8.50
2018-04-17T11:06:38.358Z,8.48
2018-04-17T11:07:45.696Z,9.50
2018-04-17T11:08:52.424Z,9.38
2018-04-17T11:09:58.770Z,8.75
2018-04-17T11:11:07.841Z,9.10
2018-04-17T11:12:14.944Z,9.57
2018-04-17T11:13:21.219Z,9.82
2018-04-17T11:14:27.501Z,8.60
2018-04-17T11:15:33.732Z,10.10
2018-04-17T11:16:40.317Z,8.57
2018-04-17T11:17:47.045Z,8.95
2018-04-17T11:18:59.409Z,9.45
2018-04-17T11:20:05.702Z,8.32
2018-04-17T11:21:12.410Z,9.10
2018-04-17T11:22:18.679Z,8.52
2018-04-17T11:23:24.966Z,8.80
2018-04-17T11:24:31.267Z,9.75
2018-04-17T11:25:38.410Z,9.40
2018-04-17T11:26:44.674Z,8.95
2018-04-17T11:27:50.937Z,9.63
2018-04-17T11:28:57.219Z,9.10
2018-04-17T11:30:03.436Z,9.55
2018-04-17T11:31:09.752Z,9.52
2018-04-17T11:32:16.082Z,9.05
2018-04-17T11:33:22.813Z,9.55
2018-04-17T11:34:29.142Z,8.48
2018-04-17T11:35:36.680Z,8.35
2018-04-17T11:36:42.935Z,9.93
2018-04-17T11:37:49.171Z,9.25
2018-04-17T11:38:55.568Z,9.70
2018-04-17T11:40:01.250Z,10.35
2018-04-17T11:41:07.602Z,10.38
2018-04-17T11:42:15.286Z,9.88
2018-04-17T11:43:22.542Z,10.50
2018-04-17T11:44:28.787Z,10.02
2018-04-17T11:45:35.082Z,10.18
2018-04-17T11:46:41.408Z,10.25
2018-04-17T11:47:47.730Z,9.85
2018-04-17T11:48:57.210Z,10.10
2018-04-17T11:50:03.511Z,10.10
2018-04-17T11:51:09.888Z,9.95
2018-04-17T11:52:16.443Z,10.68
2018-04-17T11:53:22.779Z,12.00
2018-04-17T11:54:29.052Z,10.13
2018-04-17T11:55:35.300Z,10.68
2018-04-17T11:56:41.581Z,10.85
2018-04-17T11:57:49.616Z,10.18
2018-04-17T11:58:57.619Z,10.48
2018-04-17T12:00:04.258Z,9.90
2018-04-17T12:01:10.513Z,11.73
2018-04-17T12:02:20.116Z,10.73
2018-04-17T12:03:28.603Z,9.80
2018-04-17T12:04:34.864Z,12.02
2018-04-17T12:05:41.172Z,11.45
2018-04-17T12:06:47.169Z,10.95
2018-04-17T12:07:53.162Z,10.45
2018-04-17T12:08:59.920Z,10.45
2018-04-17T12:10:05.995Z,11.48
2018-04-17T12:11:12.740Z,10.25
2018-04-17T12:12:19.162Z,11.25
2018-04-17T12:13:27.832Z,12.10
2018-04-17T12:14:34.857Z,9.43
2018-04-17T12:15:41.193Z,10.02
2018-04-17T12:16:47.507Z,11.40
2018-04-17T12:17:53.888Z,9.57
2018-04-17T12:18:59.986Z,11.40
2018-04-17T12:20:06.412Z,11.30
2018-04-17T12:21:12.744Z,10.57
2018-04-17T12:22:19.081Z,9.85
2018-04-17T12:23:25.512Z,9.82
2018-04-17T12:24:32.943Z,10.48
2018-04-17T12:25:39.203Z,10.23
2018-04-17T12:26:45.508Z,12.18
2018-04-17T12:27:51.865Z,10.48
2018-04-17T12:28:59.938Z,11.05
2018-04-17T12:30:06.190Z,9.73
2018-04-17T12:31:12.220Z,11.12
2018-04-17T12:32:18.478Z,10.85
2018-04-17T12:33:25.080Z,10.73
2018-04-17T12:34:31.631Z,11.12
2018-04-17T12:35:37.857Z,11.57
2018-04-17T12:36:44.152Z,11.57
2018-04-17T12:37:50.369Z,10.57
2018-04-17T12:38:56.711Z,11.00
2018-04-17T12:40:03.586Z,10.88
2018-04-17T12:41:09.930Z,11.48
2018-04-17T12:42:16.210Z,9.77
2018-04-17T12:43:22.464Z,10.85
2018-04-17T12:44:36.163Z,10.80
2018-04-17T12:45:42.375Z,10.43
2018-04-17T12:46:48.673Z,10.57
2018-04-17T12:47:55.020Z,11.48
2018-04-17T12:49:01.290Z,10.60
2018-04-17T12:50:07.582Z,11.90
2018-04-17T12:51:13.911Z,10.60
2018-04-17T12:52:20.236Z,11.02
2018-04-17T12:53:26.423Z,10.43
2018-04-17T12:54:32.778Z,10.77
2018-04-17T12:55:39.042Z,11.18
2018-04-17T12:56:45.362Z,11.12
2018-04-17T12:57:51.650Z,11.12
2018-04-17T12:58:57.892Z,10.55
2018-04-17T13:00:04.637Z,11.25
2018-04-17T13:01:10.881Z,11.93
2018-04-17T13:02:17.221Z,10.85
2018-04-17T13:03:23.531Z,11.55
2018-04-17T13:04:29.895Z,11.60
2018-04-17T13:05:36.150Z,13.13
2018-04-17T13:06:42.448Z,11.18
2018-04-17T13:07:49.302Z,10.93
2018-04-17T13:08:55.601Z,10.00
2018-04-17T13:10:01.944Z,10.93
2018-04-17T13:11:08.233Z,11.32
2018-04-17T13:12:14.618Z,11.50
2018-04-17T13:13:20.857Z,12.25
2018-04-17T13:14:27.192Z,12.50
2018-04-17T13:15:34.732Z,11.35
2018-04-17T13:16:42.703Z,11.05
2018-04-17T13:17:49.210Z,11.45
2018-04-17T13:18:55.497Z,11.65
2018-04-17T13:20:01.601Z,11.40
2018-04-17T13:21:07.618Z,13.02
2018-04-17T13:22:17.106Z,11.90
2018-04-17T13:23:23.398Z,10.30
2018-04-17T13:24:29.435Z,9.95
2018-04-17T13:25:36.525Z,11.23
2018-04-17T13:26:43.733Z,12.37
2018-04-17T13:27:50.250Z,10.93
2018-04-17T13:28:56.493Z,12.30
2018-04-17T13:30:02.823Z,12.45
2018-04-17T13:31:10.164Z,10.95
2018-04-17T13:32:17.749Z,11.70
2018-04-17T13:33:23.755Z,9.90
2018-04-17T13:34:29.983Z,9.85
2018-04-17T13:35:36.337Z,12.48
2018-04-17T13:36:42.327Z,12.50
2018-04-17T13:37:48.618Z,9.65
2018-04-17T13:38:54.834Z,11.30
2018-04-17T13:40:01.193Z,11.10
2018-04-17T13:41:07.442Z,12.00
2018-04-17T13:42:14.291Z,11.00
2018-04-17T13:43:20.605Z,10.80
2018-04-17T13:44:26.924Z,11.40
2018-04-17T13:45:33.226Z,11.88
2018-04-17T13:46:39.805Z,10.23
2018-04-17T13:47:47.381Z,9.82
2018-04-17T13:48:53.737Z,12.50
2018-04-17T13:50:00.207Z,11.93
2018-04-17T13:51:07.000Z,13.02
2018-04-17T13:52:13.309Z,11.95
2018-04-17T13:53:19.495Z,12.80
2018-04-17T13:54:25.798Z,13.73
2018-04-17T13:55:32.066Z,10.95
2018-04-17T13:56:38.396Z,11.35
2018-04-17T13:57:44.699Z,11.40
2018-04-17T13:58:51.011Z,11.35
2018-04-17T13:59:57.350Z,11.68
2018-04-17T14:01:03.865Z,12.63
2018-04-17T14:02:09.817Z,13.05
2018-04-17T14:03:16.023Z,11.90
2018-04-17T14:04:23.132Z,12.15
2018-04-17T14:05:29.499Z,12.27
2018-04-17T14:06:36.586Z,14.07
2018-04-17T14:07:43.659Z,11.50
2018-04-17T14:08:49.949Z,12.32
2018-04-17T14:09:56.292Z,11.95
2018-04-17T14:11:03.498Z,11.27
2018-04-17T14:12:09.800Z,11.50
2018-04-17T14:13:16.003Z,10.40
2018-04-17T14:14:22.256Z,10.20
2018-04-17T14:15:28.561Z,9.90
2018-04-17T14:16:34.961Z,10.27
2018-04-17T14:17:41.303Z,10.15
2018-04-17T14:18:47.615Z,9.23
2018-04-17T14:19:54.852Z,10.25
2018-04-17T14:21:01.143Z,9.98
2018-04-17T14:22:07.494Z,11.02
2018-04-17T14:23:14.294Z,11.80
2018-04-17T14:24:21.203Z,13.02
2018-04-17T14:25:27.557Z,13.65
2018-04-17T14:26:33.819Z,13.45
2018-04-17T14:27:40.157Z,12.65
2018-04-17T14:28:46.443Z,13.55